Talk to Mark Zilbert (786) 280-0201

 
 
 
 
 

ICON Brickell Tower 2 - Rentals

495 Brickell Ave, Miami, FL 33131

 

Quick Facts About ICON Brickell Tower 2

Developer: The Related Group
Architect: Arquitectonica
Builder: N/A
Year Built: 2009
Number of Units: 561
Number of Units For Rent: 19
Unit Sizes: From 732 to 2632 s.f.
Looking for a condo to buy? CLICK HERE >


Today's Prices from: (12/9/2019)
$2,600 - $5,200

Your Sales Contact
Mark Zilbert

Contact Us
 

Mark Zilbert

Luxury Real Estate Specialist
Call or Text Me Anytime
+1 (786) 280-0201

Send Me Info
 

Description of ICON Brickell Tower 2

Here is why we are very excited about ICON BRICKELL and VICEROY BRICKELL

  • PREMIUM LIVING:  This is a PREMIUM condo complex. These are among the finest residences you can find in Miami.
  • MASSIVE SITE:  The project sits on a 10 acre site, including building and parkland, in a very-accessible location. This reminds us of Chicago living, but with palm trees!
  • DESIGNER INFLUENCES:  Famed designer Philippe Starck has created some of the most amazing designs ever seen in a condo complex
  • HOTEL SERVICES:  The much-admired VICEROY HOTEL is integrated into one of the towers, offering both condo-hotel and traditional condo residences
  • RESORT AND POOL:  The complex has the largest pool and resort area of any condo in Miami, 2.5 acres
  • HIGH-END FINISHES:  The residential condo units are above-and-beyond in standard finishes, rivaling some of Miami’s most luxurious residences

We've Got Three Towers To Bring You Home To:

ICON Brickell Tower 2 Map and Directions

ICON Brickell Tower 2 Floorplans

Model Apt. No Beds/ Baths SqFt (m²) Floorplans
A 01 3/2/0 1870 (173.7) more
D 02 2/2/0 1654 (153.7) more
B 03 2/2/0 1518 (141.0) more
C 04 2/2/0 1500 (139.4) more
Br 05 2/2/0 1450 (134.7) more
H 06 1/1/0 732 (68.0) more
G 07 1/1/0 984 (91.4) more
Hr 08 1/1/0 732 (68.0) more
Gr 09 1/1/0 1035 (96.2) more
E 10 2/2/0 1327 (123.3) more
F 11 2/2/0 1255 (116.6) more

22 Units For Rent or Lease at ICON Brickell Tower 2

1 Bedroom Units For Rent or Lease at ICON Brickell Tower 2

Average Asking Price - $3.56/SQFT
Unit Listed Rent Rent $/sqft Beds/ Baths Interior Space Furnished Listing Date
4708 $2,350 $39 1/1½ 732 s.f. 11/20/2019
4506 $2,400 $39 1/0½ 732 s.f. 10/14/2019
2606 $2,499 $41 1/1½ 732 s.f. 9/11/2019
5608 $2,600 $43 1/1½ 732 s.f. 12/6/2019
4006 $2,750 $45 1/1½ 732 s.f. 8/27/2019
3708 $2,750 $45 1/1½ 732 s.f. 9/30/2019
3206 $2,800 $46 1/1½ 732 s.f. 11/27/2019
2107 $3,200 $39 1/1½ 984 s.f. 11/17/2019
2906 $3,200 $52 1/1½ 732 s.f. 10/10/2019
5007 $3,300 $40 1/1½ 984 s.f. 11/19/2019
3707 $3,450 $42 1/1½ 984 s.f. 11/1/2019
2207 $3,600 $44 1/1½ 984 s.f. 11/30/2019

2 Bedroom Units For Rent or Lease at ICON Brickell Tower 2

Average Asking Price - $3.19/SQFT
Unit Listed Rent Rent $/sqft Beds/ Baths Interior Space Furnished Listing Date
3210 $3,500 $32 2/2½ 1327 s.f. 8/15/2019
1811 $3,600 $34 2/2½ 1255 s.f. 11/18/2019
1611 $3,700 $35 2/2½ 1255 s.f. 11/8/2019
3911 $3,800 $36 2/2½ 1255 s.f. 6/18/2019
BAY407 $3,900 $34 2/2½ 1390 s.f. 10/8/2019
5310 $3,990 $36 2/2½ 1327 s.f. 11/14/2019
2205 $4,100 $34 2/2½ 1450 s.f. 10/7/2019
5204 $4,100 $33 2/2½ 1500 s.f. 11/19/2019
5105 $4,100 $34 2/2½ 1450 s.f. 12/5/2019
3205 $5,200 $43 2/2½ 1450 s.f. 8/27/2019

Rental and Leasing History at ICON Brickell Tower 2

Units Rented or Leased at ICON Brickell Tower 2

49 Rented or Leased - $0.94/SqFt - In Last 6 Months
Unit Listed Rent Actual Rent Rented $/sqft Beds/ Baths Interior Space Furnished Closed Date
3106 $2,450 $2,300 $38 1/1½ 732 s.f. 12/6/2019
2511 $3,500 $3,500 $33 2/2½ 1255 s.f. 12/6/2019
5511 $3,650 $3,650 $35 2/2½ 1255 s.f. 12/1/2019
2106 $2,650 $2,600 - 1/1½ - 12/1/2019
1907 $2,800 $2,650 $32 1/1½ 984 s.f. 11/29/2019
4608 $2,750 $2,700 $44 1/1½ 732 s.f. 11/22/2019
3903 $3,975 $3,900 $31 3/2½ 1518 s.f. 11/15/2019
3407 $2,650 $2,650 $32 1/1½ 984 s.f. 11/15/2019
1911 $3,490 $3,400 $33 2/2½ 1255 s.f. 11/10/2019
2908 $2,350 $1,250 $20 1/1½ 732 s.f. 11/4/2019
3603 $4,300 $4,000 $32 2/2½ 1518 s.f. 11/1/2019
3308 $2,800 $2,800 $46 1/1½ 732 s.f. 10/15/2019
2103 $4,000 $3,900 $31 2/2½ 1518 s.f. 10/12/2019
2904 $4,000 $4,000 $32 2/2½ 1500 s.f. 10/1/2019
1107 $3,200 $3,200 $39 1/1½ 984 s.f. 9/26/2019
802 $3,650 $3,500 $28 2/2½ 1505 s.f. 9/23/2019
1111 $3,450 $3,450 $33 2/2½ 1255 s.f. 9/18/2019
3802 $4,200 $4,000 $29 2/2½ 1654 s.f. 9/9/2019
3709 $2,950 $2,950 $34 1/1½ 1035 s.f. 9/3/2019
3711 $3,900 $3,700 $35 2/2½ 1255 s.f. 9/1/2019
4406 $2,600 $2,550 $42 1/1½ 732 s.f. 9/1/2019
4005 $3,900 $3,750 $31 2/2½ 1450 s.f. 9/1/2019
4511 $3,600 $3,500 $33 2/2½ 1255 s.f. 8/29/2019
4504 $4,000 $3,900 $29 2/2½ 1633 s.f. 8/29/2019
3410 $3,650 $3,800 $34 2/2½ 1327 s.f. 8/23/2019
4804 $4,000 $3,800 $28 2/2½ 1633 s.f. 8/20/2019
2609 $2,700 $2,700 $31 1/1½ 1035 s.f. 8/17/2019
5504 $3,890 $3,890 $31 2/2½ 1500 s.f. 8/17/2019
1207 $2,650 $2,575 $31 1/1½ 984 s.f. 8/9/2019
5405 $4,700 $4,000 $33 2/2½ 1450 s.f. 8/9/2019
1401 $8,500 $9,000 $58 3/2½ 1870 s.f. 8/7/2019
4408 $2,350 $2,450 $40 1/1½ 732 s.f. 8/1/2019
4701 $6,500 $6,300 $40 3/2½ 1870 s.f. 8/1/2019
4306 $2,400 $2,350 $39 1/1½ 732 s.f. 7/29/2019
Bay 720 $3,600 $3,600 $31 2/2½ 1390 s.f. 7/23/2019
1502 $5,000 $4,400 $32 2/2½ 1654 s.f. 7/19/2019
5303 $4,000 $3,850 $30 2/2½ 1518 s.f. 7/17/2019
5106 $2,500 $2,350 $39 1/1½ 732 s.f. 7/15/2019
3305 $4,500 $4,000 $33 2/2½ 1450 s.f. 7/15/2019
4710 $4,300 $3,800 $34 2/2½ 1327 s.f. 7/15/2019
3507 $2,750 $2,700 $33 1/1½ 984 s.f. 7/12/2019
4605 $4,000 $3,700 $31 2/2½ 1450 s.f. 7/12/2019
1109 $3,200 $3,600 $42 1/1½ 1035 s.f. 7/7/2019
1706 $2,400 $2,300 $38 1/1½ 732 s.f. 7/1/2019
1005 $4,100 $3,900 $32 2/2½ 1450 s.f. 6/26/2019
3110 $3,800 $3,800 $34 2/2½ 1327 s.f. 6/19/2019
4110 $4,600 $4,400 $40 2/2½ 1327 s.f. 6/19/2019
3706 $2,300 $2,200 $36 1/1½ 732 s.f. 6/16/2019
2907 $2,750 $2,700 $33 1/1½ 984 s.f. 6/15/2019
4103 $5,500 $4,800 $38 2/2½ 1518 s.f. 6/7/2019
3408 $2,350 $2,300 $38 1/1½ 732 s.f. 6/1/2019
4509 $2,950 $2,900 $34 1/1½ 1035 s.f. 5/31/2019
705 $3,500 $3,000 $25 2/2½ 1450 s.f. 5/28/2019
3308 $2,800 $2,800 $46 1/1½ 732 s.f. 5/20/2019
2409 $2,650 $2,600 $30 1/1½ 1035 s.f. 5/17/2019
4907 $2,900 $3,000 $37 1/1½ 984 s.f. 5/9/2019
5410 $3,700 $3,600 $33 2/2½ 1327 s.f. 5/1/2019
2308 $2,300 $2,100 $34 1/1½ 732 s.f. 4/23/2019
2801 $5,300 $5,000 $32 3/2½ 1870 s.f. 4/19/2019
3404 $4,000 $4,000 $32 2/2½ 1500 s.f. 4/18/2019
2007 $2,800 $2,600 $32 1/1½ 984 s.f. 4/1/2019
5208 $2,500 $2,400 $39 1/1½ 732 s.f. 4/1/2019
5505 $4,100 $4,000 $33 2/2½ 1450 s.f. 4/1/2019
4709 $2,900 $2,750 $32 1/1½ 1035 s.f. 3/25/2019
520 $4,200 $4,000 $35 2/2½ 1390 s.f. 3/22/2019
5406 $2,650 $2,650 $43 1/1½ 732 s.f. 3/22/2019
3509 $2,800 $2,700 $31 1/1½ 1035 s.f. 3/15/2019
3506 $2,425 $2,300 $38 1/1½ 732 s.f. 3/15/2019
3602 $4,250 $4,100 $30 2/2½ 1654 s.f. 3/15/2019
4906 $2,700 $2,500 $41 1/1½ 732 s.f. 3/14/2019
3808 $2,300 $2,200 $36 1/1½ 732 s.f. 3/12/2019
5006 $2,500 $2,200 $36 1/1½ 732 s.f. 3/4/2019
2811 $3,400 $3,250 $31 2/2½ 1255 s.f. 3/4/2019
1707 $2,450 $2,450 - 1/1½ - 3/1/2019
802 $3,975 $3,850 $31 2/2½ 1505 s.f. 3/1/2019
2508 $2,200 $2,000 $33 1/1½ 730 s.f. 3/1/2019
2806 $2,400 $2,200 $36 1/1½ 732 s.f. 2/26/2019
1711 $3,250 $3,200 $31 2/2½ 1255 s.f. 2/22/2019
4310 $3,400 $3,250 $29 2/2½ 1327 s.f. 2/20/2019
3411 $3,500 $3,300 $32 2/2½ 1255 s.f. 2/15/2019
4809 $2,850 $2,800 $32 1/1½ 1035 s.f. 2/11/2019
5210 $4,800 $4,500 $41 2/2½ 1327 s.f. 2/8/2019
1509 $3,200 $3,200 $37 1/1½ 1035 s.f. 2/4/2019
1009 $2,700 $2,400 $28 1/1½ 1035 s.f. 2/1/2019
1007 $2,600 $2,400 $29 1/1½ 984 s.f. 2/1/2019
2706 $2,250 $2,200 $36 1/1½ 732 s.f. 2/1/2019
3811 $3,500 $3,400 $33 2/2½ 1255 s.f. 1/25/2019
3206 $2,650 $2,550 $42 1/1½ 732 s.f. 1/10/2019
4307 $3,600 $3,200 $39 1/1½ 984 s.f. 1/7/2019
3207 $2,900 $2,750 $34 1/1½ 984 s.f. 1/4/2019
4707 $2,950 $2,700 $33 1/1½ 984 s.f. 12/27/2018
4708 $2,200 $2,100 $34 1/1½ 732 s.f. 12/19/2018
2505 $3,600 $3,500 $29 2/2½ 1450 s.f. 12/18/2018
1608 $2,150 $2,150 $35 1/1½ 732 s.f. 12/18/2018
1905 $3,600 $3,500 $29 2/2½ 1450 s.f. 12/16/2018
3809 $2,790 $2,750 $32 1/1½ 1035 s.f. 12/15/2018
1005 $5,100 $5,250 $43 2/2½ 1450 s.f. 12/14/2018
1502 $5,000 $4,500 $33 2/2½ 1654 s.f. 12/12/2018
2511 $3,450 $3,200 $31 2/2½ 1255 s.f. 12/6/2018
2201 $7,500 $6,750 $43 3/2½ 1870 s.f. 12/4/2018
1209 $2,600 $2,400 $28 1/1½ 1035 s.f. 12/1/2018
3301 $5,800 $5,800 $37 3/2½ 1870 s.f. 12/1/2018
3909 $2,825 $2,750 $32 1/1½ 1035 s.f. 11/29/2018
4703 $3,950 $3,900 $31 2/2½ 1518 s.f. 11/29/2018
3911 $3,900 $3,700 $35 2/2½ 1255 s.f. 11/28/2018
2504 $3,800 $3,650 $29 2/2½ 1500 s.f. 11/27/2018
3707 $3,300 $3,000 $37 1/1½ 984 s.f. 11/21/2018
4205 $3,850 $3,850 $35 2/2½ 1320 s.f. 11/19/2018
3408 $2,250 $2,300 $38 1/1½ 732 s.f. 11/15/2018
5310 $3,575 $3,400 $31 2/2½ 1327 s.f. 11/5/2018
2906 $2,380 $2,300 $38 1/1½ 732 s.f. 11/1/2018
3308 $2,800 $2,800 $46 1/1½ 732 s.f. 11/1/2018
2908 $2,300 $2,100 $34 1/1½ 732 s.f. 10/31/2018
4503 $3,950 $3,950 $31 2/2½ 1518 s.f. 10/22/2018
2904 $3,850 $3,500 $28 2/2½ 1500 s.f. 10/15/2018
1706 $2,300 $2,200 $36 1/1½ 732 s.f. 10/15/2018
4705 $3,800 $3,700 $31 2/2½ 1450 s.f. 10/10/2018
3102 $3,750 $3,500 $25 2/2½ 1654 s.f. 10/5/2018
1709 $2,500 $2,500 $29 1/1½ 1035 s.f. 10/1/2018
PH 5701 $11,000 $11,000 $50 4/3½ 2632 s.f. 10/1/2018
2110 $3,100 $3,050 $29 2/2½ 1255 s.f. 10/1/2018
3305 $4,700 $4,500 $37 2/2½ 1450 s.f. 10/1/2018
5201 $7,900 $7,000 $45 3/2½ 1870 s.f. 10/1/2018
5511 $3,500 $3,450 $33 2/2½ 1255 s.f. 9/28/2018
2206 $2,400 $2,200 $36 1/1½ 732 s.f. 9/27/2018
1710 $3,050 $2,850 $26 2/2½ 1327 s.f. 9/26/2018
2808 $2,600 $2,600 $43 1/1½ 732 s.f. 9/23/2018
2104 $3,998 $3,700 $27 2/2½ 1633 s.f. 9/21/2018
620 $3,499 $3,499 $30 2/2½ 1390 s.f. 9/20/2018
5402 $4,200 $4,200 $30 2/2½ 1654 s.f. 9/12/2018
4301 $6,350 $6,300 $40 3/2½ 1870 s.f. 9/10/2018
4207 $2,750 $2,700 $33 1/1½ 984 s.f. 9/5/2018
2911 $3,350 $3,300 $32 2/2½ 1255 s.f. 8/29/2018
BAY905 $3,500 $3,350 $29 2/2½ 1390 s.f. 8/24/2018
4406 $2,650 $2,450 $40 1/1½ 732 s.f. 8/22/2018
4304 $4,200 $4,000 $32 2/2½ 1500 s.f. 8/15/2018
2708 $2,100 $2,050 $34 1/1½ 732 s.f. 8/7/2018
5401 $6,000 $5,600 $36 3/2½ 1870 s.f. 8/6/2018
2504 $3,950 $3,750 $30 2/2½ 1500 s.f. 8/1/2018
3703 $3,800 $3,300 $26 2/2½ 1518 s.f. 8/1/2018
5306 $2,400 $2,200 $27 1/1½ 984 s.f. 8/1/2018
3505 $3,600 $3,300 $27 2/2½ 1450 s.f. 8/1/2018
4504 $4,000 $3,850 $28 2/2½ 1633 s.f. 8/1/2018
4409 $2,700 $2,700 $31 1/1½ 1035 s.f. 8/1/2018
1510 $3,300 $2,950 $27 2/2½ 1327 s.f. 7/16/2018
4310 $3,450 $3,400 $31 2/2½ 1327 s.f. 7/16/2018
BAY707 $3,450 $3,200 $28 2/2½ 1390 s.f. 7/15/2018
4810 $3,500 $3,500 $32 2/2½ 1327 s.f. 7/15/2018
4606 $2,400 $2,200 $36 1/1½ 732 s.f. 7/12/2018
5606 $2,650 $2,500 $41 1/1½ 732 s.f. 7/12/2018
2609 $2,500 $2,200 $26 1/1½ 1035 s.f. 7/9/2018
403 $3,200 $3,200 $25 2/2½ 1518 s.f. 7/1/2018
1906 $2,200 $2,000 $33 1/1½ 732 s.f. 6/30/2018
3207 $2,750 $3,000 $37 1/1½ 984 s.f. 6/25/2018
2702 $4,500 $4,000 $29 2/2½ 1654 s.f. 6/23/2018
3802 $3,950 $3,800 $28 2/2½ 1654 s.f. 6/22/2018
BAY507 $3,450 $3,450 $30 2/2½ 1390 s.f. 6/18/2018
4511 $3,500 $3,350 $32 2/2½ 1255 s.f. 6/15/2018
3410 $3,600 $3,600 $33 2/2½ 1327 s.f. 6/15/2018
4408 $2,300 $2,100 $34 1/1½ 732 s.f. 6/15/2018
5506 $2,300 $2,200 $36 1/1½ 732 s.f. 6/14/2018
3109 $2,650 $2,650 $31 1/1½ 1035 s.f. 6/12/2018
4711 $3,500 $3,400 $33 2/2½ 1255 s.f. 6/11/2018
3110 $3,600 $3,450 $31 2/2½ 1327 s.f. 6/8/2018
3708 $2,600 $2,600 $43 1/1½ 732 s.f. 6/6/2018
2605 $4,500 $4,500 $37 2/2½ 1450 s.f. 6/5/2018
2108 $2,200 $2,100 $34 1/1½ 732 s.f. 6/4/2018
3411 $3,400 $3,300 $32 2/2½ 1255 s.f. 6/4/2018
2310 $3,800 $4,000 $36 2/2½ 1327 s.f. 6/1/2018
3309 $2,700 $2,650 $31 1/1½ 1035 s.f. 5/25/2018
1904 $3,600 $3,600 $29 2/2½ 1500 s.f. 5/25/2018
4706 $2,400 $2,400 $39 1/1½ 732 s.f. 5/20/2018
5411 $3,600 $3,200 $31 2/2½ 1255 s.f. 5/15/2018
4511 $3,500 $3,200 $31 2/2½ 1255 s.f. 5/15/2018
4703 $4,450 $4,450 $35 2/2½ 1518 s.f. 5/1/2018
4103 $5,000 $4,700 $37 2/2½ 1518 s.f. 5/1/2018
4507 $2,750 $2,750 $34 1/1½ 984 s.f. 4/23/2018
3306 $2,250 $2,250 $37 1/1½ 732 s.f. 4/19/2018
2604 $3,700 $3,700 - 2/2½ - 4/16/2018
4407 $2,600 $2,500 $30 1/1½ 984 s.f. 4/6/2018
3711 $4,000 $3,800 $36 2/2½ 1255 s.f. 4/1/2018
2411 $3,500 $3,000 $29 2/2½ 1255 s.f. 4/1/2018
2910 $3,750 $3,600 $33 2/2½ 1327 s.f. 3/21/2018
3308 $2,850 $2,850 $47 1/1½ 732 s.f. 3/15/2018
Bay520 $3,800 $3,700 $32 2/2½ 1390 s.f. 3/1/2018
BAY807 $3,550 $3,450 $30 2/2½ 1390 s.f. 2/22/2018
2606 $2,300 $2,200 $36 1/1½ 732 s.f. 2/15/2018
4406 $2,600 $2,500 $41 1/1½ 732 s.f. 2/15/2018
3602 $4,250 $4,000 $29 2/2½ 1654 s.f. 1/26/2018
5302 $5,500 $5,300 $38 2/2½ 1654 s.f. 1/22/2018
705 $3,450 $3,250 $27 2/2½ 1450 s.f. 1/4/2018
1207 $2,600 $2,400 $29 1/1½ 984 s.f. 12/20/2017
3011 $3,450 $3,320 $32 2/2½ 1255 s.f. 12/18/2017
4405 $3,800 $3,600 $30 2/2½ 1450 s.f. 12/15/2017
4610 $3,300 $3,000 $27 2/2½ 1327 s.f. 12/15/2017
3711 $4,000 $4,000 $38 2/2½ 1255 s.f. 12/14/2017
2310 $3,500 $4,000 $36 2/2½ 1327 s.f. 12/13/2017
3502 $4,100 $3,900 $28 2/2½ 1654 s.f. 12/4/2017
3206 $2,600 $2,550 $42 1/1½ 732 s.f. 12/1/2017
1905 $3,600 $3,450 $29 2/2½ 1450 s.f. 11/17/2017

Zilbert notes on ICON Brickell Tower 2

The available condo data in this report is limited to properties for sale at $350,000 and higher, and properties for rent at $3,000 and higher. Less expensive properties may not be appearing on this site.

Source: Southeast Florida MLS. Data updated 12/9/2019. Information is deemed reliable but not guaranteed. The listing data on this page comes from the Internet Data Exchange (IDX), a collaboration between the REALTOR(R) associations in the South Florida Multiple Listing Service (MLS) including The Miami Association of Realtors and the Realtor Association of Greater Ft. Lauderdale. All rights reserved. A property appearing on this website is not necessarily an exclusive listing of Brown Harris Stevens, and may be listed with other brokers. An agent of Brown Harris Stevens appearing on this website as the contact person for any property is not necessarily the listing agent, however, is acting at a transaction broker. The name of the listing broker appears with every property detail page, shown just after the map. When properties are presented as part of lists, generally the Brown Harris Stevens listings for Miami Beach are highlighted in yellow. The information being provided is for consumers' personal, non-commercial use. Federal law prohibits discrimination on the basis of race, color, religion, sex, handicap, familial status or national origin in the sale, rental or financing of housing.

 

Online Now

Have a Question? Live Chat

Condo & Home Directory

 
 

Brown Harris Stevens recommends that buyers, sellers and renters of real estate consult appropriate professionals for legal and other specialized advice.

Information presented on this website is believed to be accurate but is not warranted. Oral representations should not be considered valid. Information presented on this site (and in generated reports) may contain listings from both Brown Harris Stevens and other brokers who cooperate with Brown Harris Stevens. The content on this webpage (including drawings, photos, text and other materials) may have been provided by developers, third parties or others, and may have been extracted from a developer's marketing materials. Brown Harris Stevens does not warrant the accuracy of such information. You should consult your Purchase Agreement, Contract and Condominium Documents for accurate information. Brown Harris Stevens is an independent broker and has no developer affiliation, unless otherwise noted.

Contact Us

Email Address
First Name
Last Name